ARA Libertad — LOLD — position and weather

sailwx.info

Track history (hours):
 
Tides and Currents Weather Stations Pressure Air Temp Water Temp Dewpoint Dewpoint Depression Visibility Wind Speed Wind Dir Waves Ship Positions

ARA Libertad (Argentina)

Last reported at 2018-Jul-11 21:56 UTC. Time now 2018-Aug-14 07:05 UTC.
Position N 09°31' W 079°51'.
Warning: this ship's position is 33 days out of date.

Length 104 m; draft 6.5 m.

Type: Other ship. MMSI: 701000001.

Date/timePositionNaut miles runAvg speedWind from/ knotsBaromVisibWave heightAir tempDewpointWater temp
2018-Jul-11 21:56N 09°31' W 079°51'613.0
2018-Jul-11 21:30N 09°27' W 079°55'3 6.2
2018-Jul-11 20:58N 09°25' W 079°57'0 0.0
2018-Jul-11 20:28N 09°25' W 079°57'0 0.0
2018-Jul-11 19:58N 09°25' W 079°57'0 0.0
2018-Jul-11 19:28N 09°25' W 079°57'0 0.0
2018-Jul-11 18:52N 09°25' W 079°57'0 0.0
2018-Jul-11 18:22N 09°25' W 079°57'0 0.0
2018-Jul-11 17:58N 09°25' W 079°57'0 0.0
2018-Jul-11 17:19N 09°25' W 079°57'0 0.0
2018-Jul-11 16:55N 09°25' W 079°57'0 0.0
2018-Jul-11 15:46N 09°25' W 079°57'0 0.0
2018-Jul-11 15:25N 09°25' W 079°57'0 0.0
2018-Jul-11 14:49N 09°25' W 079°57'0 0.0
2018-Jul-11 14:19N 09°25' W 079°57'0 0.0
2018-Jul-11 13:58N 09°25' W 079°57'0 0.0
2018-Jul-11 13:25N 09°25' W 079°57'0 0.0
2018-Jul-11 12:58N 09°25' W 079°57'0 0.0
2018-Jul-11 12:28N 09°25' W 079°57'0 0.0
2018-Jul-11 11:58N 09°25' W 079°57'0 0.0
2018-Jul-11 11:13N 09°25' W 079°57'0 0.0
2018-Jul-11 10:58N 09°25' W 079°57'0 0.0
2018-Jul-11 10:13N 09°25' W 079°57'0 0.0
2018-Jul-11 09:58N 09°25' W 079°57'0 0.0
2018-Jul-11 09:28N 09°25' W 079°57'0 0.0
2018-Jul-11 08:58N 09°25' W 079°57'0 0.0
2018-Jul-11 08:28N 09°25' W 079°57'0 0.0
2018-Jul-11 07:58N 09°25' W 079°57'0 0.0
2018-Jul-11 07:25N 09°25' W 079°57'0 0.0
2018-Jul-11 06:49N 09°25' W 079°57'0 0.0
2018-Jul-11 06:28N 09°25' W 079°57'0 0.0
2018-Jul-11 05:55N 09°25' W 079°57'0 0.0
2018-Jul-11 05:28N 09°25' W 079°57'0 0.0
2018-Jul-11 04:58N 09°25' W 079°57'0 0.0
2018-Jul-11 04:25N 09°25' W 079°57'0 0.0
2018-Jul-11 03:58N 09°25' W 079°57'0 0.0
2018-Jul-11 03:28N 09°25' W 079°57'0 0.0
2018-Jul-11 02:58N 09°25' W 079°57'0 0.0
2018-Jul-11 02:25N 09°25' W 079°57'0 0.1
2018-Jul-11 02:00N 09°25' W 079°57'2 4.1
2018-Jul-11 01:30N 09°23' W 079°55'5 9.4
2018-Jul-11 00:59N 09°18' W 079°55'2 3.1
2018-Jul-11 00:27N 09°17' W 079°55'0 0.6
2018-Jul-11 00:00N 09°16' W 079°55'0 0.6
2018-Jul-10 23:30N 09°16' W 079°55'1 1.2
2018-Jul-10 23:00N 09°15' W 079°55'1 1.0
2018-Jul-10 22:30N 09°15' W 079°55'  
Track history (hours):
 
Tides and Currents Weather Stations Pressure Air Temp Water Temp Dewpoint Dewpoint Depression Visibility Wind Speed Wind Dir Waves Ship Positions

ARA Libertad (Argentina)

Last reported at 2018-Jul-11 21:56 UTC. Time now 2018-Aug-14 07:05 UTC.
Position N 09°31' W 079°51'.
Warning: this ship's position is 33 days out of date.

Length 104 m; draft 6.5 m.

Type: Other ship. MMSI: 701000001.

Date/timePositionNaut miles runAvg speedWind from/ knotsBaromVisibWave heightAir tempDewpointWater temp
2018-Jul-11 21:56N 09°31' W 079°51'613.0
2018-Jul-11 21:30N 09°27' W 079°55'3 6.2
2018-Jul-11 20:58N 09°25' W 079°57'0 0.0
2018-Jul-11 20:28N 09°25' W 079°57'0 0.0
2018-Jul-11 19:58N 09°25' W 079°57'0 0.0
2018-Jul-11 19:28N 09°25' W 079°57'0 0.0
2018-Jul-11 18:52N 09°25' W 079°57'0 0.0
2018-Jul-11 18:22N 09°25' W 079°57'0 0.0
2018-Jul-11 17:58N 09°25' W 079°57'0 0.0
2018-Jul-11 17:19N 09°25' W 079°57'0 0.0
2018-Jul-11 16:55N 09°25' W 079°57'0 0.0
2018-Jul-11 15:46N 09°25' W 079°57'0 0.0
2018-Jul-11 15:25N 09°25' W 079°57'0 0.0
2018-Jul-11 14:49N 09°25' W 079°57'0 0.0
2018-Jul-11 14:19N 09°25' W 079°57'0 0.0
2018-Jul-11 13:58N 09°25' W 079°57'0 0.0
2018-Jul-11 13:25N 09°25' W 079°57'0 0.0
2018-Jul-11 12:58N 09°25' W 079°57'0 0.0
2018-Jul-11 12:28N 09°25' W 079°57'0 0.0
2018-Jul-11 11:58N 09°25' W 079°57'0 0.0
2018-Jul-11 11:13N 09°25' W 079°57'0 0.0
2018-Jul-11 10:58N 09°25' W 079°57'0 0.0
2018-Jul-11 10:13N 09°25' W 079°57'0 0.0
2018-Jul-11 09:58N 09°25' W 079°57'0 0.0
2018-Jul-11 09:28N 09°25' W 079°57'0 0.0
2018-Jul-11 08:58N 09°25' W 079°57'0 0.0
2018-Jul-11 08:28N 09°25' W 079°57'0 0.0
2018-Jul-11 07:58N 09°25' W 079°57'0 0.0
2018-Jul-11 07:25N 09°25' W 079°57'0 0.0
2018-Jul-11 06:49N 09°25' W 079°57'0 0.0
2018-Jul-11 06:28N 09°25' W 079°57'0 0.0
2018-Jul-11 05:55N 09°25' W 079°57'0 0.0
2018-Jul-11 05:28N 09°25' W 079°57'0 0.0
2018-Jul-11 04:58N 09°25' W 079°57'0 0.0
2018-Jul-11 04:25N 09°25' W 079°57'0 0.0
2018-Jul-11 03:58N 09°25' W 079°57'0 0.0
2018-Jul-11 03:28N 09°25' W 079°57'0 0.0
2018-Jul-11 02:58N 09°25' W 079°57'0 0.0
2018-Jul-11 02:25N 09°25' W 079°57'0 0.1
2018-Jul-11 02:00N 09°25' W 079°57'2 4.1
2018-Jul-11 01:30N 09°23' W 079°55'5 9.4
2018-Jul-11 00:59N 09°18' W 079°55'2 3.1
2018-Jul-11 00:27N 09°17' W 079°55'0 0.6
2018-Jul-11 00:00N 09°16' W 079°55'0 0.6
2018-Jul-10 23:30N 09°16' W 079°55'1 1.2
2018-Jul-10 23:00N 09°15' W 079°55'1 1.0
2018-Jul-10 22:30N 09°15' W 079°55'  

Dump ship's entire track history